Time;durP1;ratioP1;P1;durP2;ratioP2;P2;SDS_P1;SDS_P2;PMS_P1;PMS_P2;Temp;Humidity;BMP_temperature;BMP_pressure;BME280_temperature;BME280_humidity;BME280_pressure;Samples;Min_cycle;Max_cycle;Signal;HPM_P1;HPM_P2
2023/11/20 00:02:51;;;;;;;11.82;1.10;;;;;;;14.32;60.94;99916.56;10262163;28;20047;-60
2023/11/20 00:07:53;;;;;;;13.35;0.60;;;;;;;14.34;60.92;99914.50;10262158;28;20054;-60
2023/11/20 00:12:54;;;;;;;10.40;1.58;;;;;;;14.34;60.92;99914.50;10281100;28;20055;-60
2023/11/20 00:17:56;;;;;;;13.27;1.40;;;;;;;14.38;60.71;99923.84;10267760;28;20430;-61
2023/11/20 00:22:58;;;;;;;5.53;0.47;;;;;;;14.38;60.95;99913.03;10257104;28;20057;-60
2023/11/20 00:27:59;;;;;;;23.90;3.65;;;;;;;14.39;60.88;99901.16;10277100;28;20058;-60
2023/11/20 00:33:00;;;;;;;9.60;0.50;;;;;;;14.44;60.87;99904.06;10277551;28;20046;-61
2023/11/20 00:38:03;;;;;;;9.85;0.93;;;;;;;14.43;60.83;99905.09;10281777;28;20083;-61
2023/11/20 00:43:04;;;;;;;8.73;0.50;;;;;;;14.39;60.95;99903.03;10273842;28;20059;-61
2023/11/20 00:48:06;;;;;;;6.07;0.45;;;;;;;14.37;61.09;99905.13;10280755;28;20376;-62
2023/11/20 00:53:07;;;;;;;8.10;0.75;;;;;;;14.37;60.96;99911.34;10280276;28;20066;-61
2023/11/20 00:58:09;;;;;;;7.55;0.50;;;;;;;14.42;60.86;99916.13;10274970;28;20047;-61
2023/11/20 01:03:10;;;;;;;4.38;0.60;;;;;;;14.38;61.22;99929.25;10283547;28;20116;-60
2023/11/20 01:08:12;;;;;;;5.53;0.70;;;;;;;14.36;61.37;99922.41;10271153;28;20054;-60
2023/11/20 01:13:13;;;;;;;6.82;0.60;;;;;;;14.38;61.32;99923.00;10281482;28;20047;-61
2023/11/20 01:18:15;;;;;;;16.60;1.35;;;;;;;14.34;61.63;99919.06;10280968;28;20053;-62
2023/11/20 01:23:17;;;;;;;7.18;1.35;;;;;;;14.31;61.58;99927.59;10285031;28;20043;-61
2023/11/20 01:28:19;;;;;;;6.72;1.27;;;;;;;14.28;61.84;99920.75;10257386;28;20058;-60
2023/11/20 01:33:20;;;;;;;8.77;0.75;;;;;;;14.21;61.95;99914.50;10280523;28;20047;-61
2023/11/20 01:38:21;;;;;;;3.47;0.60;;;;;;;14.22;61.84;99914.31;10284378;28;20048;-62
2023/11/20 01:43:23;;;;;;;8.88;1.00;;;;;;;14.22;62.00;99911.59;10287503;28;20055;-60
2023/11/20 01:48:25;;;;;;;3.80;0.43;;;;;;;14.18;62.16;99909.50;10284610;28;20058;-62
2023/11/20 01:53:28;;;;;;;6.90;0.60;;;;;;;14.15;62.34;99913.47;10288279;28;20682;-64
2023/11/20 01:58:33;;;;;;;6.07;0.50;;;;;;;14.16;62.41;99914.28;10287947;28;20046;-64
2023/11/20 02:03:35;;;;;;;14.20;1.35;;;;;;;14.18;62.39;99912.22;10290473;28;20131;-64
2023/11/20 02:08:36;;;;;;;4.68;0.30;;;;;;;14.22;62.43;99913.47;10286378;28;20117;-64
2023/11/20 02:13:38;;;;;;;11.20;0.77;;;;;;;14.20;62.48;99900.16;10290138;28;20054;-64
2023/11/20 02:18:41;;;;;;;8.63;0.57;;;;;;;14.21;62.49;99907.22;10283875;28;20050;-64
2023/11/20 02:23:42;;;;;;;10.65;0.63;;;;;;;14.20;62.62;99904.75;10290433;28;20054;-64
2023/11/20 02:29:14;;;;;;;6.13;0.60;;;;;;;14.23;62.54;99898.91;10269272;28;20050;-64
2023/11/20 02:34:16;;;;;;;9.55;0.80;;;;;;;14.13;62.83;99893.09;10284628;28;20928;-64
2023/11/20 02:39:17;;;;;;;5.93;0.77;;;;;;;14.07;62.68;99894.78;10282866;28;20446;-63
2023/11/20 02:44:19;;;;;;;5.82;0.50;;;;;;;14.09;62.84;99901.63;10287154;28;20443;-64
2023/11/20 02:49:20;;;;;;;9.98;1.40;;;;;;;14.08;62.77;99891.88;10280710;28;20494;-65
2023/11/20 02:54:22;;;;;;;3.17;0.70;;;;;;;14.12;62.60;99894.13;10282695;28;20074;-63
2023/11/20 02:59:23;;;;;;;10.60;0.50;;;;;;;14.10;62.66;99891.66;10281081;28;20054;-63
2023/11/20 03:04:25;;;;;;;5.13;0.70;;;;;;;14.07;62.61;99892.06;10287127;28;20062;-64
2023/11/20 03:09:26;;;;;;;6.13;0.63;;;;;;;14.07;62.77;99892.06;10271209;28;20039;-64
2023/11/20 03:14:28;;;;;;;10.75;0.73;;;;;;;14.04;62.98;99887.06;10285814;28;20130;-64
2023/11/20 03:19:29;;;;;;;3.10;0.60;;;;;;;13.99;62.90;99882.31;10264673;28;20074;-64
2023/11/20 03:24:31;;;;;;;9.38;0.73;;;;;;;14.02;62.98;99887.31;10263371;28;20133;-64
2023/11/20 03:29:32;;;;;;;9.38;0.57;;;;;;;14.04;63.03;99882.53;10283873;28;20129;-64
2023/11/20 03:34:35;;;;;;;6.97;0.60;;;;;;;14.05;62.99;99876.06;10279929;28;20054;-64
2023/11/20 03:39:36;;;;;;;7.38;0.60;;;;;;;14.06;63.02;99866.94;10287743;28;20043;-64
2023/11/20 03:44:38;;;;;;;10.20;0.40;;;;;;;13.99;63.14;99852.59;10285913;28;20501;-64
2023/11/20 03:49:39;;;;;;;7.80;1.10;;;;;;;13.87;63.67;99865.91;10283015;28;20042;-63
2023/11/20 03:54:42;;;;;;;10.13;1.80;;;;;;;13.58;64.74;99860.94;10279555;28;20043;-63
2023/11/20 03:59:44;;;;;;;3.22;0.30;;;;;;;13.47;65.13;99874.03;10276688;28;20054;-63
2023/11/20 04:04:45;;;;;;;4.53;0.70;;;;;;;13.51;65.21;99868.19;10276413;28;20525;-63
2023/11/20 04:09:47;;;;;;;10.68;1.25;;;;;;;13.56;64.99;99869.22;10258958;28;20431;-62
2023/11/20 04:14:48;;;;;;;6.50;0.40;;;;;;;13.48;65.51;99870.28;10278268;28;20135;-60
2023/11/20 04:19:50;;;;;;;7.07;1.83;;;;;;;13.44;65.73;99871.72;10278301;28;20386;-61
2023/11/20 04:24:52;;;;;;;4.40;0.80;;;;;;;13.45;65.88;99867.19;10283359;28;20522;-60
2023/11/20 04:29:54;;;;;;;3.45;0.30;;;;;;;13.48;65.96;99856.75;10284305;28;20054;-61
2023/11/20 04:34:55;;;;;;;4.38;0.40;;;;;;;13.52;65.89;99859.88;10278472;28;20050;-60
2023/11/20 04:39:58;;;;;;;9.05;1.17;;;;;;;13.49;65.98;99861.16;10288469;28;20061;-60
2023/11/20 04:44:59;;;;;;;12.20;1.13;;;;;;;13.27;66.85;99854.25;10291164;28;20047;-58
2023/11/20 04:50:01;;;;;;;7.90;0.55;;;;;;;13.09;67.35;99857.53;10280502;28;20050;-60
2023/11/20 04:55:04;;;;;;;6.75;0.50;;;;;;;12.97;67.77;99854.59;10280055;28;20054;-58
2023/11/20 05:00:07;;;;;;;10.88;1.00;;;;;;;12.80;68.59;99862.25;10278993;28;20047;-59
2023/11/20 05:05:09;;;;;;;6.32;0.60;;;;;;;12.58;69.54;99864.25;10285448;28;20047;-60
2023/11/20 05:10:11;;;;;;;12.95;0.75;;;;;;;12.24;70.76;99875.88;10286348;28;20134;-60
2023/11/20 05:15:12;;;;;;;8.30;1.25;;;;;;;12.24;70.88;99867.78;10282510;28;20531;-62
2023/11/20 05:20:14;;;;;;;10.95;0.60;;;;;;;12.13;71.43;99873.75;10287782;28;20506;-61
2023/11/20 05:25:16;;;;;;;8.20;0.60;;;;;;;12.16;71.35;99876.84;10271967;28;20425;-63
2023/11/20 05:30:17;;;;;;;5.13;0.45;;;;;;;12.14;71.46;99876.22;10284562;28;20054;-63
2023/11/20 05:35:19;;;;;;;9.68;1.27;;;;;;;12.12;71.85;99869.38;10285110;28;20063;-63
2023/11/20 05:40:21;;;;;;;10.40;0.70;;;;;;;12.19;71.39;99873.78;10283861;28;20073;-64
2023/11/20 05:45:23;;;;;;;15.27;0.63;;;;;;;12.32;71.09;99881.09;10284475;28;20058;-63
2023/11/20 05:50:24;;;;;;;7.47;0.68;;;;;;;12.42;70.90;99869.94;10286868;28;20206;-64
2023/11/20 05:55:29;;;;;;;5.85;0.75;;;;;;;12.49;71.00;99862.72;10288183;28;20046;-64
2023/11/20 06:00:31;;;;;;;12.02;1.40;;;;;;;12.54;71.02;99875.59;10281802;28;20514;-63
2023/11/20 06:05:33;;;;;;;7.20;0.80;;;;;;;12.47;71.50;99862.09;10282424;28;20062;-64
2023/11/20 06:10:34;;;;;;;6.60;0.30;;;;;;;12.44;71.70;99862.50;10282459;28;20173;-63
2023/11/20 06:15:36;;;;;;;7.00;0.40;;;;;;;12.32;72.11;99874.88;10272677;28;20054;-63
2023/11/20 06:20:37;;;;;;;10.70;1.20;;;;;;;12.08;72.67;99868.94;10279519;28;20098;-63
2023/11/20 06:25:39;;;;;;;4.75;0.50;;;;;;;11.99;72.91;99865.56;10286256;28;20075;-65
2023/11/20 06:30:41;;;;;;;5.93;0.68;;;;;;;11.99;72.80;99884.44;10288327;28;20139;-63
2023/11/20 06:35:43;;;;;;;3.05;0.40;;;;;;;12.10;72.88;99885.72;10285503;28;20038;-63
2023/11/20 06:40:45;;;;;;;4.47;0.40;;;;;;;12.23;72.11;99885.81;10277357;28;20587;-63
2023/11/20 06:45:47;;;;;;;1.83;0.30;;;;;;;12.27;72.39;99894.34;10281739;28;20050;-68
2023/11/20 06:50:49;;;;;;;3.42;0.40;;;;;;;12.34;72.18;99900.59;10293032;28;20058;-67
2023/11/20 06:55:51;;;;;;;5.60;0.40;;;;;;;12.36;72.07;99892.31;10305748;28;20061;-67
2023/11/20 07:00:53;;;;;;;12.45;2.05;;;;;;;12.42;71.98;99884.28;10323323;28;20075;-66
2023/11/20 07:05:54;;;;;;;3.90;0.35;;;;;;;12.42;71.87;99888.81;10319351;28;20051;-70
2023/11/20 07:10:57;;;;;;;8.38;0.43;;;;;;;12.44;72.14;99901.09;10299724;28;20054;-67
2023/11/20 07:15:59;;;;;;;6.38;0.30;;;;;;;12.38;71.96;99891.09;10307321;28;20116;-68
2023/11/20 07:21:00;;;;;;;4.40;0.10;;;;;;;12.38;72.30;99909.13;10316071;28;20047;-66
2023/11/20 07:26:02;;;;;;;4.05;0.20;;;;;;;12.38;72.12;99909.97;10314053;28;20317;-67
2023/11/20 07:31:04;;;;;;;6.13;0.47;;;;;;;12.19;72.82;99914.19;10326924;28;20066;-67
2023/11/20 07:36:09;;;;;;;2.40;0.98;;;;;;;12.16;73.38;99901.09;10334763;28;20041;-66
2023/11/20 07:41:11;;;;;;;2.72;0.22;;;;;;;12.22;72.93;99907.56;10330319;28;20034;-66
2023/11/20 07:46:13;;;;;;;4.18;0.30;;;;;;;12.26;73.01;99903.44;10333702;28;20077;-66
2023/11/20 07:51:14;;;;;;;3.53;0.32;;;;;;;12.36;72.71;99905.78;10331807;28;20072;-66
2023/11/20 07:56:17;;;;;;;4.25;0.30;;;;;;;12.42;72.43;99907.69;10331814;28;20071;-66
2023/11/20 08:01:20;;;;;;;2.70;0.17;;;;;;;12.54;71.70;99908.81;10329430;28;20038;-68
2023/11/20 08:06:21;;;;;;;3.22;0.13;;;;;;;12.56;71.63;99911.28;10330906;28;20111;-67
2023/11/20 08:11:23;;;;;;;3.78;0.22;;;;;;;12.54;71.71;99911.50;10335483;28;20035;-67
2023/11/20 08:16:24;;;;;;;1.95;0.40;;;;;;;12.11;72.81;99941.31;10294164;28;20054;-72
2023/11/20 08:21:26;;;;;;;1.40;0.20;;;;;;;11.89;73.35;99930.56;10285618;28;20054;-73
2023/11/20 08:26:27;;;;;;;2.40;0.30;;;;;;;11.84;73.99;99927.56;10283780;28;20051;-71
2023/11/20 08:31:29;;;;;;;4.03;0.20;;;;;;;11.90;73.71;99932.22;10291020;28;20050;-73
2023/11/20 08:36:31;;;;;;;4.45;1.05;;;;;;;12.15;73.43;99933.66;10288526;28;20050;-74
2023/11/20 08:41:33;;;;;;;2.40;0.20;;;;;;;12.35;73.18;99923.84;10283118;28;20061;-75
2023/11/20 08:46:35;;;;;;;2.17;0.20;;;;;;;12.44;72.84;99913.72;10284327;28;20061;-75
2023/11/20 08:51:36;;;;;;;1.52;0.40;;;;;;;12.58;72.27;99910.06;10284375;28;20401;-69
2023/11/20 08:56:42;;;;;;;5.30;0.60;;;;;;;12.67;72.13;99908.84;10288968;28;20138;-68
2023/11/20 09:01:45;;;;;;;1.15;0.20;;;;;;;12.70;71.82;99900.38;10287367;28;20054;-70
2023/11/20 09:06:47;;;;;;;1.70;0.25;;;;;;;12.68;71.91;99929.41;10271190;28;20039;-67
2023/11/20 09:11:49;;;;;;;1.65;0.30;;;;;;;12.84;71.56;99928.22;10272985;28;20050;-68
2023/11/20 09:16:51;;;;;;;4.57;0.30;;;;;;;12.92;71.10;99918.31;10290956;28;20398;-69
2023/11/20 09:21:52;;;;;;;4.60;0.65;;;;;;;12.96;70.36;99919.56;10287185;28;20074;-67
2023/11/20 09:26:54;;;;;;;1.83;0.20;;;;;;;13.03;70.44;99928.50;10284413;28;20134;-69
2023/11/20 09:31:55;;;;;;;1.35;0.30;;;;;;;13.29;70.05;99934.00;10281173;28;20082;-69
2023/11/20 09:36:57;;;;;;;4.10;0.28;;;;;;;13.55;69.54;99929.69;10281187;28;20051;-67
2023/11/20 09:41:59;;;;;;;2.67;0.20;;;;;;;13.69;69.31;99925.97;10286182;28;20077;-68
2023/11/20 09:47:01;;;;;;;3.25;0.10;;;;;;;13.80;69.20;99929.09;10285393;28;20054;-67
2023/11/20 09:52:07;;;;;;;3.55;0.35;;;;;;;13.78;69.02;99921.19;10289610;28;20634;-68
2023/11/20 09:57:12;;;;;;;3.67;0.40;;;;;;;13.84;68.51;99912.28;10288716;28;20057;-69
2023/11/20 10:02:13;;;;;;;0.70;0.20;;;;;;;13.87;68.34;99919.94;10282702;28;20529;-68
2023/11/20 10:07:16;;;;;;;2.15;0.30;;;;;;;13.70;68.60;99902.47;10286193;28;20058;-67
2023/11/20 10:12:22;;;;;;;3.00;0.20;;;;;;;13.87;68.17;99903.72;10283328;28;20077;-65
2023/11/20 10:17:26;;;;;;;3.25;0.30;;;;;;;13.92;68.11;99905.81;10274353;28;20149;-64
2023/11/20 10:22:34;;;;;;;2.65;0.20;;;;;;;13.70;68.80;99894.38;10269261;28;20113;-63
2023/11/20 10:27:35;;;;;;;3.40;0.30;;;;;;;13.58;69.22;99890.63;10285578;28;20078;-62
2023/11/20 10:32:43;;;;;;;3.78;0.20;;;;;;;13.49;69.07;99881.91;10284089;28;20062;-64
2023/11/20 10:37:52;;;;;;;5.10;0.40;;;;;;;13.66;69.04;99866.13;10264306;28;20050;-64
2023/11/20 10:42:54;;;;;;;2.42;0.20;;;;;;;13.96;68.16;99861.13;10283664;28;20161;-63
2023/11/20 10:47:55;;;;;;;2.05;0.20;;;;;;;14.02;68.45;99871.09;10283885;28;20054;-65
2023/11/20 10:53:05;;;;;;;0.88;0.20;;;;;;;13.98;68.49;99866.31;10277996;28;20593;-63
2023/11/20 10:58:09;;;;;;;2.10;0.20;;;;;;;13.85;68.30;99853.66;10284543;28;20409;-65
2023/11/20 11:03:11;;;;;;;2.42;0.20;;;;;;;13.86;67.97;99855.31;10259436;28;20059;-62
2023/11/20 11:08:20;;;;;;;0.52;0.43;;;;;;;13.86;67.85;99841.78;10278806;28;20042;-63
2023/11/20 11:13:29;;;;;;;0.75;0.10;;;;;;;13.88;67.42;99823.50;10278649;28;20047;-64
2023/11/20 11:18:33;;;;;;;3.60;0.20;;;;;;;13.99;67.31;99820.16;10276928;28;20047;-63
2023/11/20 11:23:44;;;;;;;3.53;0.50;;;;;;;14.14;67.05;99816.38;10275588;28;20046;-67
2023/11/20 11:28:52;;;;;;;1.50;0.10;;;;;;;14.23;66.71;99812.41;10273700;28;20057;-68
2023/11/20 11:34:18;;;;;;;2.22;0.20;;;;;;;14.16;66.68;99811.56;10276678;28;20054;-68
2023/11/20 11:39:27;;;;;;;2.22;0.15;;;;;;;14.09;66.83;99815.13;10265151;28;20054;-67
2023/11/20 11:44:40;;;;;;;2.60;0.20;;;;;;;14.01;66.57;99806.44;10260040;28;20141;-66
2023/11/20 11:49:49;;;;;;;1.13;0.38;;;;;;;14.13;66.21;99802.03;10257886;28;20046;-68
2023/11/20 11:55:24;;;;;;;1.17;0.10;;;;;;;14.19;66.32;99789.53;10254125;28;20055;-64
2023/11/20 12:00:28;;;;;;;3.15;0.10;;;;;;;14.31;65.83;99785.13;10252247;28;20703;-68
2023/11/20 12:05:29;;;;;;;0.28;0.08;;;;;;;14.29;65.84;99773.69;10280713;28;20058;-69
2023/11/20 12:10:41;;;;;;;0.55;0.10;;;;;;;14.32;65.69;99765.16;10279490;28;20112;-69
2023/11/20 12:15:47;;;;;;;1.55;0.20;;;;;;;14.43;65.19;99766.34;10277433;28;20520;-67
2023/11/20 12:20:49;;;;;;;2.05;0.20;;;;;;;14.45;64.92;99762.41;10278875;28;20079;-68
2023/11/20 12:25:53;;;;;;;4.22;0.20;;;;;;;14.64;64.25;99749.00;10278879;28;20051;-67
2023/11/20 12:30:55;;;;;;;1.58;0.20;;;;;;;14.72;63.78;99747.91;10279068;28;20053;-67
2023/11/20 12:35:57;;;;;;;1.35;0.10;;;;;;;14.66;63.49;99733.38;10275446;28;20046;-66
2023/11/20 12:41:03;;;;;;;1.23;0.10;;;;;;;14.56;63.08;99730.31;10295986;28;20051;-66
2023/11/20 12:46:06;;;;;;;2.67;0.38;;;;;;;14.63;62.61;99731.09;10298266;28;20050;-66
2023/11/20 12:51:09;;;;;;;2.10;0.20;;;;;;;14.45;62.64;99723.69;10296457;28;20051;-66
2023/11/20 12:56:11;;;;;;;0.47;0.10;;;;;;;14.58;62.38;99723.66;10285017;28;20066;-67
2023/11/20 13:01:13;;;;;;;1.80;0.28;;;;;;;14.51;62.28;99730.09;10294730;28;20066;-67
2023/11/20 13:06:14;;;;;;;2.72;0.10;;;;;;;14.40;62.37;99718.94;10315999;28;20109;-66
2023/11/20 13:11:18;;;;;;;2.33;0.10;;;;;;;14.34;62.15;99721.69;10301420;28;20055;-67
2023/11/20 13:16:20;;;;;;;0.95;0.10;;;;;;;13.88;63.58;99723.53;10304949;28;20077;-68
2023/11/20 13:21:23;;;;;;;1.55;0.20;;;;;;;13.48;64.46;99715.53;10293606;28;20133;-68
2023/11/20 13:26:25;;;;;;;0.63;0.00;;;;;;;13.53;63.70;99710.34;10305747;28;20065;-66
2023/11/20 13:31:34;;;;;;;1.02;0.10;;;;;;;13.36;64.53;99723.44;10313362;28;20053;-67
2023/11/20 13:36:37;;;;;;;2.63;0.43;;;;;;;13.45;64.21;99713.28;10299916;28;20496;-67
2023/11/20 13:41:41;;;;;;;0.13;0.10;;;;;;;13.65;63.75;99710.53;10302168;28;20042;-64
2023/11/20 13:46:42;;;;;;;1.60;0.28;;;;;;;13.90;63.37;99705.22;10333110;28;20053;-65
2023/11/20 13:51:44;;;;;;;1.67;0.15;;;;;;;14.19;62.78;99697.63;10315335;28;20088;-66
2023/11/20 13:56:46;;;;;;;0.45;0.00;;;;;;;14.43;62.34;99696.03;10329962;28;20046;-65
2023/11/20 14:01:47;;;;;;;3.28;0.20;;;;;;;14.60;61.88;99701.81;10327104;28;20058;-66
2023/11/20 14:06:49;;;;;;;1.38;0.10;;;;;;;14.76;61.54;99689.63;10327154;28;20079;-66
2023/11/20 14:11:51;;;;;;;1.52;0.10;;;;;;;14.66;61.66;99699.03;10312011;28;20057;-66
2023/11/20 14:16:55;;;;;;;1.85;0.20;;;;;;;14.48;62.03;99694.34;10335319;28;20062;-65
2023/11/20 14:21:57;;;;;;;0.57;0.10;;;;;;;14.43;62.16;99696.03;10327321;28;20050;-66
2023/11/20 14:26:59;;;;;;;1.00;0.10;;;;;;;14.44;62.05;99695.81;10338789;28;20034;-67
2023/11/20 14:32:00;;;;;;;1.65;0.00;;;;;;;14.38;62.35;99690.47;10332998;28;20061;-65
2023/11/20 14:37:04;;;;;;;0.40;0.00;;;;;;;14.38;62.14;99683.19;10335091;28;20511;-66
2023/11/20 14:42:06;;;;;;;2.15;0.10;;;;;;;14.27;62.28;99683.84;10332711;28;20042;-65
2023/11/20 14:47:07;;;;;;;1.23;0.10;;;;;;;14.23;62.50;99679.94;10330180;28;20062;-66
2023/11/20 14:52:09;;;;;;;1.40;0.10;;;;;;;14.16;62.46;99682.69;10318623;28;20058;-64
2023/11/20 14:57:10;;;;;;;0.55;0.10;;;;;;;14.09;62.58;99680.00;10270742;28;20589;-65
2023/11/20 15:02:12;;;;;;;0.22;0.10;;;;;;;14.06;62.33;99699.38;10275672;28;20058;-66
2023/11/20 15:07:14;;;;;;;0.57;0.10;;;;;;;13.97;62.36;99699.81;10280161;28;20050;-64
2023/11/20 15:12:16;;;;;;;1.55;0.20;;;;;;;13.88;62.34;99691.97;10281523;28;20057;-65
2023/11/20 15:17:18;;;;;;;1.85;0.10;;;;;;;13.83;62.38;99691.75;10285105;28;20062;-65
2023/11/20 15:22:20;;;;;;;0.82;0.50;;;;;;;13.72;62.69;99694.28;10279321;28;20050;-64
2023/11/20 15:27:21;;;;;;;1.30;0.20;;;;;;;13.68;62.50;99683.94;10262598;28;20053;-65
2023/11/20 15:32:23;;;;;;;1.80;0.20;;;;;;;13.61;62.57;99696.63;10280241;28;20058;-65
2023/11/20 15:37:25;;;;;;;0.40;0.10;;;;;;;13.54;62.42;99684.16;10281970;28;20105;-65
2023/11/20 15:42:26;;;;;;;1.38;0.47;;;;;;;13.56;62.37;99693.72;10272578;28;20070;-66
2023/11/20 15:47:28;;;;;;;1.60;0.17;;;;;;;13.51;62.38;99695.38;10260730;28;20060;-62
2023/11/20 15:52:29;;;;;;;2.28;0.20;;;;;;;13.51;62.63;99698.06;10206144;28;20557;-62
2023/11/20 15:57:31;;;;;;;0.70;0.10;;;;;;;13.40;62.89;99691.47;10210003;29;22272;-61
2023/11/20 16:02:34;;;;;;;1.83;0.10;;;;;;;13.38;63.02;99694.38;10222911;29;20490;-60
2023/11/20 16:07:37;;;;;;;1.33;0.80;;;;;;;13.16;63.75;99696.44;10221778;29;20122;-62
2023/11/20 16:12:39;;;;;;;0.85;0.85;;;;;;;12.76;65.11;99699.16;10221129;28;20058;-60
2023/11/20 16:17:43;;;;;;;3.30;0.88;;;;;;;12.36;66.78;99701.81;10210213;29;20070;-62
2023/11/20 16:22:45;;;;;;;2.42;0.47;;;;;;;11.91;68.27;99704.13;10227692;28;20131;-63
2023/11/20 16:27:46;;;;;;;2.85;0.20;;;;;;;11.67;68.96;99703.56;10220138;28;20137;-62
2023/11/20 16:32:48;;;;;;;1.23;0.20;;;;;;;11.54;69.74;99710.75;10204182;29;20110;-62
2023/11/20 16:37:50;;;;;;;1.17;0.32;;;;;;;11.43;70.47;99717.50;10213162;28;20542;-63
2023/11/20 16:42:52;;;;;;;2.05;0.35;;;;;;;11.37;70.73;99720.97;10227212;29;20062;-64
2023/11/20 16:47:54;;;;;;;1.50;0.32;;;;;;;11.32;71.30;99724.28;10244984;28;20051;-65
2023/11/20 16:52:56;;;;;;;0.90;0.38;;;;;;;11.19;72.00;99721.47;10285324;28;20054;-64
2023/11/20 16:57:58;;;;;;;1.38;0.55;;;;;;;11.23;72.07;99717.38;10287692;28;20046;-65
2023/11/20 17:03:00;;;;;;;3.33;0.30;;;;;;;11.27;72.20;99711.38;10285719;28;20437;-65
2023/11/20 17:08:01;;;;;;;3.80;0.32;;;;;;;11.34;72.48;99724.91;10284611;28;20054;-64
2023/11/20 17:13:08;;;;;;;0.45;0.30;;;;;;;11.29;72.65;99721.97;10262474;28;20063;-71
2023/11/20 17:18:09;;;;;;;2.22;0.50;;;;;;;11.20;73.72;99710.53;10283965;28;20055;-69
2023/11/20 17:23:13;;;;;;;4.10;0.50;;;;;;;11.27;73.34;99706.00;10280943;28;20063;-71
2023/11/20 17:28:15;;;;;;;4.45;0.70;;;;;;;11.24;73.60;99705.59;10279201;28;20129;-70
2023/11/20 17:33:16;;;;;;;4.60;0.43;;;;;;;11.13;74.66;99708.81;10290510;28;20117;-70
2023/11/20 17:38:18;;;;;;;2.40;0.40;;;;;;;11.08;75.11;99704.03;10293879;28;20054;-71
2023/11/20 17:43:20;;;;;;;1.85;0.50;;;;;;;11.05;74.88;99715.97;10288003;28;20050;-69
2023/11/20 17:48:23;;;;;;;2.85;0.50;;;;;;;11.11;74.92;99700.94;10273109;28;20061;-65
2023/11/20 17:53:28;;;;;;;1.87;0.37;;;;;;;11.22;74.94;99704.97;10259762;28;20053;-69
2023/11/20 17:58:32;;;;;;;3.33;0.60;;;;;;;11.21;74.63;99703.28;10289216;28;20502;-70
2023/11/20 18:03:34;;;;;;;1.38;0.50;;;;;;;11.25;74.62;99709.94;10284363;28;20109;-67
2023/11/20 18:08:36;;;;;;;0.85;0.30;;;;;;;11.21;74.82;99717.56;10267957;28;20089;-70
2023/11/20 18:13:41;;;;;;;3.40;0.40;;;;;;;11.15;75.41;99706.75;10269818;28;20557;-68
2023/11/20 18:18:44;;;;;;;1.80;0.30;;;;;;;11.08;75.70;99712.91;10240120;28;20055;-70
2023/11/20 18:23:46;;;;;;;3.40;0.40;;;;;;;11.04;75.78;99705.44;10281305;28;20134;-66
2023/11/20 18:28:48;;;;;;;1.30;0.50;;;;;;;11.06;75.48;99701.53;10276036;28;20417;-65
2023/11/20 18:33:49;;;;;;;1.65;0.50;;;;;;;11.14;75.55;99707.78;10260775;28;20138;-65
2023/11/20 18:38:51;;;;;;;5.63;0.93;;;;;;;11.14;74.98;99705.94;10278056;28;20062;-63
2023/11/20 18:43:52;;;;;;;1.88;1.00;;;;;;;11.08;75.14;99704.84;10278966;28;20053;-64
2023/11/20 18:48:54;;;;;;;3.88;0.80;;;;;;;11.11;75.25;99703.63;10278051;28;20490;-64
2023/11/20 18:53:56;;;;;;;4.95;1.67;;;;;;;11.23;74.62;99702.03;10280564;28;20062;-64
2023/11/20 18:58:58;;;;;;;3.83;1.75;;;;;;;11.24;75.42;99705.59;10268392;28;20050;-63
2023/11/20 19:04:01;;;;;;;3.63;1.48;;;;;;;11.24;75.14;99705.59;10279742;28;20047;-65
2023/11/20 19:09:05;;;;;;;1.45;0.80;;;;;;;11.22;74.78;99697.72;10258742;28;20068;-64
2023/11/20 19:14:06;;;;;;;1.88;1.05;;;;;;;11.25;75.19;99691.91;10273008;28;20047;-64
2023/11/20 19:19:09;;;;;;;2.88;1.23;;;;;;;11.30;75.37;99694.03;10278686;28;20054;-64
2023/11/20 19:24:11;;;;;;;8.93;1.60;;;;;;;11.37;75.28;99702.16;10266416;28;20055;-62
2023/11/20 19:29:13;;;;;;;6.88;1.60;;;;;;;11.40;75.28;99691.81;10278385;28;20054;-63
2023/11/20 19:34:17;;;;;;;4.75;1.42;;;;;;;11.43;75.73;99695.97;10281491;28;20076;-64
2023/11/20 19:39:19;;;;;;;3.92;1.60;;;;;;;11.45;75.40;99701.97;10276036;28;20058;-62
2023/11/20 19:44:21;;;;;;;3.78;1.30;;;;;;;11.48;75.53;99690.84;10260406;28;20561;-63
2023/11/20 19:49:23;;;;;;;6.00;1.50;;;;;;;11.51;75.50;99690.41;10236589;28;20045;-62
2023/11/20 19:54:24;;;;;;;4.60;2.10;;;;;;;11.55;75.50;99688.16;10234493;28;20087;-61
2023/11/20 19:59:26;;;;;;;3.40;1.10;;;;;;;11.51;76.02;99682.34;10216462;28;20051;-63
2023/11/20 20:04:27;;;;;;;8.52;1.65;;;;;;;11.52;75.85;99678.63;10237555;28;20043;-61
2023/11/20 20:09:29;;;;;;;5.65;1.40;;;;;;;11.56;75.59;99674.53;10225286;28;20054;-61
2023/11/20 20:14:30;;;;;;;5.75;1.52;;;;;;;11.52;76.00;99676.78;10238862;28;20687;-61
2023/11/20 20:19:35;;;;;;;4.25;1.52;;;;;;;11.57;75.74;99678.88;10239791;28;20049;-61
2023/11/20 20:24:40;;;;;;;7.03;1.55;;;;;;;11.62;75.56;99675.59;10245761;28;20055;-63
2023/11/20 20:29:42;;;;;;;6.05;1.98;;;;;;;11.68;75.92;99675.59;10211618;28;20130;-62
2023/11/20 20:34:44;;;;;;;5.88;1.90;;;;;;;11.69;76.00;99681.84;10240787;28;20055;-62
2023/11/20 20:39:46;;;;;;;4.47;1.52;;;;;;;11.66;75.90;99674.97;10226465;28;20058;-61
2023/11/20 20:44:49;;;;;;;5.63;1.70;;;;;;;11.67;75.53;99673.97;10221576;28;20059;-62
2023/11/20 20:49:50;;;;;;;4.50;2.03;;;;;;;11.66;75.52;99676.84;10257517;28;20047;-64
2023/11/20 20:54:54;;;;;;;7.78;1.33;;;;;;;11.60;75.89;99678.47;10272536;28;20054;-61
2023/11/20 20:59:56;;;;;;;11.00;3.03;;;;;;;11.55;76.31;99686.31;10274154;28;20458;-61
2023/11/20 21:04:57;;;;;;;7.57;2.88;;;;;;;11.56;75.99;99681.78;10276484;28;20050;-62
2023/11/20 21:10:01;;;;;;;9.95;3.03;;;;;;;11.54;76.35;99679.28;10274713;28;20063;-61
2023/11/20 21:15:03;;;;;;;8.50;2.40;;;;;;;11.55;76.18;99672.03;10276695;28;20074;-61
2023/11/20 21:20:05;;;;;;;9.85;3.58;;;;;;;11.56;76.11;99671.00;10280726;28;20035;-62
2023/11/20 21:25:07;;;;;;;5.05;1.67;;;;;;;11.57;75.97;99669.97;10286894;28;20466;-61
2023/11/20 21:30:10;;;;;;;8.15;2.58;;;;;;;11.59;75.67;99667.91;10282900;28;20155;-61
2023/11/20 21:35:12;;;;;;;13.18;2.85;;;;;;;11.60;76.07;99667.69;10281050;28;20065;-62
2023/11/20 21:40:14;;;;;;;11.48;2.47;;;;;;;11.61;75.71;99669.38;10283717;28;20137;-62
2023/11/20 21:45:16;;;;;;;10.27;2.30;;;;;;;11.59;75.73;99660.69;10282444;28;20086;-61
2023/11/20 21:50:18;;;;;;;5.80;1.50;;;;;;;11.61;76.07;99668.53;10283052;28;20154;-62
2023/11/20 21:55:20;;;;;;;5.85;1.80;;;;;;;11.63;76.05;99671.84;10282567;28;20062;-63
2023/11/20 22:00:26;;;;;;;10.05;2.13;;;;;;;11.60;76.14;99673.09;10278180;28;20090;-61
2023/11/20 22:05:27;;;;;;;8.45;1.70;;;;;;;11.68;76.00;99680.16;10280773;28;20142;-61
2023/11/20 22:10:29;;;;;;;7.30;1.30;;;;;;;11.68;76.08;99672.09;10285344;28;20141;-61
2023/11/20 22:15:31;;;;;;;6.55;1.55;;;;;;;11.70;75.79;99664.66;10265621;28;20062;-61
2023/11/20 22:20:33;;;;;;;8.18;1.48;;;;;;;11.69;76.15;99677.28;10272627;28;20709;-61
2023/11/20 22:25:34;;;;;;;4.82;0.90;;;;;;;11.68;76.00;99678.31;10279015;28;20066;-62
2023/11/20 22:30:35;;;;;;;4.97;1.23;;;;;;;11.62;76.58;99675.59;10278024;28;20043;-61
2023/11/20 22:35:37;;;;;;;4.85;0.68;;;;;;;11.41;76.73;99666.56;10287763;28;20046;-61
2023/11/20 22:40:40;;;;;;;7.07;0.90;;;;;;;11.27;77.09;99681.78;10284190;28;20055;-62
2023/11/20 22:45:42;;;;;;;3.97;0.55;;;;;;;11.28;76.82;99685.34;10278353;28;20054;-61
2023/11/20 22:50:43;;;;;;;7.72;0.60;;;;;;;11.31;76.47;99676.84;10246063;28;20054;-62
2023/11/20 22:55:46;;;;;;;2.15;0.68;;;;;;;11.25;76.22;99678.47;10240902;28;20054;-62
2023/11/20 23:00:49;;;;;;;3.42;0.60;;;;;;;11.21;76.69;99674.50;10239960;28;20439;-69
2023/11/20 23:05:54;;;;;;;4.10;0.75;;;;;;;11.26;76.41;99669.38;10237299;28;20130;-68
2023/11/20 23:10:55;;;;;;;2.58;0.63;;;;;;;11.22;76.53;99675.38;10238502;28;20047;-66
2023/11/20 23:15:57;;;;;;;3.55;0.60;;;;;;;11.28;76.18;99671.88;10245980;28;20069;-69
2023/11/20 23:20:59;;;;;;;10.13;1.05;;;;;;;11.30;76.39;99667.13;10244583;28;20050;-68
2023/11/20 23:26:01;;;;;;;6.43;1.33;;;;;;;11.38;76.86;99666.97;10237247;28;20499;-67